sensor_id;sensor_type;location;lat;lon;timestamp;P1;durP1;ratioP1;P2;durP2;ratioP2
20505;SDS011;10411;48.148;7.704;2022-07-29T00:01:29;22.47;;;20.53;;
20505;SDS011;10411;48.148;7.704;2022-07-29T00:03:55;20.97;;;19.67;;
20505;SDS011;10411;48.148;7.704;2022-07-29T00:06:21;21.13;;;19.70;;
20505;SDS011;10411;48.148;7.704;2022-07-29T00:08:47;21.20;;;19.80;;
20505;SDS011;10411;48.148;7.704;2022-07-29T00:11:13;21.63;;;20.30;;
20505;SDS011;10411;48.148;7.704;2022-07-29T00:13:39;22.03;;;20.60;;
20505;SDS011;10411;48.148;7.704;2022-07-29T00:16:05;21.17;;;19.90;;
20505;SDS011;10411;48.148;7.704;2022-07-29T00:18:31;21.73;;;20.33;;
20505;SDS011;10411;48.148;7.704;2022-07-29T00:20:57;21.70;;;20.20;;
20505;SDS011;10411;48.148;7.704;2022-07-29T00:23:23;22.03;;;20.73;;
20505;SDS011;10411;48.148;7.704;2022-07-29T00:25:49;22.60;;;21.00;;
20505;SDS011;10411;48.148;7.704;2022-07-29T00:28:15;22.10;;;20.60;;
20505;SDS011;10411;48.148;7.704;2022-07-29T00:30:41;22.33;;;20.83;;
20505;SDS011;10411;48.148;7.704;2022-07-29T00:33:08;21.53;;;20.10;;
20505;SDS011;10411;48.148;7.704;2022-07-29T00:35:34;21.63;;;20.17;;
20505;SDS011;10411;48.148;7.704;2022-07-29T00:38:28;22.20;;;20.90;;
20505;SDS011;10411;48.148;7.704;2022-07-29T00:40:54;21.73;;;20.43;;
20505;SDS011;10411;48.148;7.704;2022-07-29T00:43:20;21.97;;;20.53;;
20505;SDS011;10411;48.148;7.704;2022-07-29T00:45:46;21.80;;;20.43;;
20505;SDS011;10411;48.148;7.704;2022-07-29T00:48:12;21.83;;;20.43;;
20505;SDS011;10411;48.148;7.704;2022-07-29T00:50:38;22.57;;;21.03;;
20505;SDS011;10411;48.148;7.704;2022-07-29T00:53:05;22.10;;;20.70;;
20505;SDS011;10411;48.148;7.704;2022-07-29T00:55:31;23.37;;;21.67;;
20505;SDS011;10411;48.148;7.704;2022-07-29T00:57:57;21.70;;;20.20;;
20505;SDS011;10411;48.148;7.704;2022-07-29T01:00:27;22.50;;;21.00;;
20505;SDS011;10411;48.148;7.704;2022-07-29T01:02:56;21.20;;;20.00;;
20505;SDS011;10411;48.148;7.704;2022-07-29T01:05:23;21.60;;;20.20;;
20505;SDS011;10411;48.148;7.704;2022-07-29T01:07:51;22.73;;;20.80;;
20505;SDS011;10411;48.148;7.704;2022-07-29T01:10:25;21.40;;;20.00;;
20505;SDS011;10411;48.148;7.704;2022-07-29T01:25:02;22.37;;;20.93;;
20505;SDS011;10411;48.148;7.704;2022-07-29T01:30:18;21.93;;;20.53;;
20505;SDS011;10411;48.148;7.704;2022-07-29T01:32:46;22.10;;;20.63;;
20505;SDS011;10411;48.148;7.704;2022-07-29T01:35:21;23.40;;;21.50;;
20505;SDS011;10411;48.148;7.704;2022-07-29T01:37:50;23.00;;;21.20;;
20505;SDS011;10411;48.148;7.704;2022-07-29T01:42:51;22.30;;;20.77;;
20505;SDS011;10411;48.148;7.704;2022-07-29T01:45:37;21.97;;;20.53;;
20505;SDS011;10411;48.148;7.704;2022-07-29T01:48:12;23.03;;;21.43;;
20505;SDS011;10411;48.148;7.704;2022-07-29T01:50:56;23.70;;;21.83;;
20505;SDS011;10411;48.148;7.704;2022-07-29T01:53:27;22.90;;;21.10;;
20505;SDS011;10411;48.148;7.704;2022-07-29T01:55:55;22.77;;;21.10;;
20505;SDS011;10411;48.148;7.704;2022-07-29T01:58:22;22.83;;;20.73;;
20505;SDS011;10411;48.148;7.704;2022-07-29T02:00:52;22.27;;;20.70;;
20505;SDS011;10411;48.148;7.704;2022-07-29T02:03:19;22.27;;;20.70;;
20505;SDS011;10411;48.148;7.704;2022-07-29T02:05:46;22.87;;;21.30;;
20505;SDS011;10411;48.148;7.704;2022-07-29T02:08:13;22.40;;;20.83;;
20505;SDS011;10411;48.148;7.704;2022-07-29T02:10:40;21.80;;;20.20;;
20505;SDS011;10411;48.148;7.704;2022-07-29T02:13:07;22.57;;;21.13;;
20505;SDS011;10411;48.148;7.704;2022-07-29T02:15:35;21.53;;;20.13;;
20505;SDS011;10411;48.148;7.704;2022-07-29T02:18:02;22.50;;;20.83;;
20505;SDS011;10411;48.148;7.704;2022-07-29T02:20:29;22.17;;;20.77;;
20505;SDS011;10411;48.148;7.704;2022-07-29T02:22:56;23.33;;;21.60;;
20505;SDS011;10411;48.148;7.704;2022-07-29T02:25:24;23.10;;;21.30;;
20505;SDS011;10411;48.148;7.704;2022-07-29T02:27:50;22.77;;;20.90;;
20505;SDS011;10411;48.148;7.704;2022-07-29T02:30:17;23.17;;;21.60;;
20505;SDS011;10411;48.148;7.704;2022-07-29T02:32:43;22.90;;;21.10;;
20505;SDS011;10411;48.148;7.704;2022-07-29T02:35:10;23.20;;;21.43;;
20505;SDS011;10411;48.148;7.704;2022-07-29T02:37:38;22.63;;;20.93;;
20505;SDS011;10411;48.148;7.704;2022-07-29T02:40:05;22.87;;;21.17;;
20505;SDS011;10411;48.148;7.704;2022-07-29T02:42:33;21.17;;;19.57;;
20505;SDS011;10411;48.148;7.704;2022-07-29T02:45:01;22.03;;;20.63;;
20505;SDS011;10411;48.148;7.704;2022-07-29T02:47:31;23.47;;;21.67;;
20505;SDS011;10411;48.148;7.704;2022-07-29T02:58:02;23.17;;;21.40;;
20505;SDS011;10411;48.148;7.704;2022-07-29T03:00:30;24.07;;;22.27;;
20505;SDS011;10411;48.148;7.704;2022-07-29T03:02:59;23.27;;;21.60;;
20505;SDS011;10411;48.148;7.704;2022-07-29T03:05:25;24.03;;;22.20;;
20505;SDS011;10411;48.148;7.704;2022-07-29T03:08:03;22.80;;;21.10;;
20505;SDS011;10411;48.148;7.704;2022-07-29T03:10:29;23.40;;;21.60;;
20505;SDS011;10411;48.148;7.704;2022-07-29T03:12:56;22.80;;;21.30;;
20505;SDS011;10411;48.148;7.704;2022-07-29T03:15:25;22.47;;;20.90;;
20505;SDS011;10411;48.148;7.704;2022-07-29T03:17:51;23.73;;;22.23;;
20505;SDS011;10411;48.148;7.704;2022-07-29T03:20:18;23.33;;;21.63;;
20505;SDS011;10411;48.148;7.704;2022-07-29T03:22:44;22.63;;;21.17;;
20505;SDS011;10411;48.148;7.704;2022-07-29T03:25:14;22.57;;;21.00;;
20505;SDS011;10411;48.148;7.704;2022-07-29T03:27:40;22.10;;;20.77;;
20505;SDS011;10411;48.148;7.704;2022-07-29T03:30:07;22.90;;;21.13;;
20505;SDS011;10411;48.148;7.704;2022-07-29T03:32:33;23.37;;;21.67;;
20505;SDS011;10411;48.148;7.704;2022-07-29T03:34:59;22.77;;;21.17;;
20505;SDS011;10411;48.148;7.704;2022-07-29T03:37:28;22.93;;;21.53;;
20505;SDS011;10411;48.148;7.704;2022-07-29T03:39:55;22.57;;;21.07;;
20505;SDS011;10411;48.148;7.704;2022-07-29T03:42:23;22.50;;;20.90;;
20505;SDS011;10411;48.148;7.704;2022-07-29T03:44:50;22.70;;;21.00;;
20505;SDS011;10411;48.148;7.704;2022-07-29T03:47:19;22.77;;;21.33;;
20505;SDS011;10411;48.148;7.704;2022-07-29T03:49:47;25.00;;;22.83;;
20505;SDS011;10411;48.148;7.704;2022-07-29T03:52:14;22.83;;;21.20;;
20505;SDS011;10411;48.148;7.704;2022-07-29T03:54:40;23.60;;;21.90;;
20505;SDS011;10411;48.148;7.704;2022-07-29T03:57:06;22.67;;;21.00;;
20505;SDS011;10411;48.148;7.704;2022-07-29T03:59:32;22.97;;;21.33;;
20505;SDS011;10411;48.148;7.704;2022-07-29T04:02:00;22.20;;;20.80;;
20505;SDS011;10411;48.148;7.704;2022-07-29T04:04:26;23.23;;;21.57;;
20505;SDS011;10411;48.148;7.704;2022-07-29T04:06:52;22.73;;;21.23;;
20505;SDS011;10411;48.148;7.704;2022-07-29T04:09:18;21.87;;;20.50;;
20505;SDS011;10411;48.148;7.704;2022-07-29T04:11:44;22.50;;;20.93;;
20505;SDS011;10411;48.148;7.704;2022-07-29T04:14:10;22.97;;;21.47;;
20505;SDS011;10411;48.148;7.704;2022-07-29T04:16:36;22.33;;;20.93;;
20505;SDS011;10411;48.148;7.704;2022-07-29T04:19:02;22.90;;;21.30;;
20505;SDS011;10411;48.148;7.704;2022-07-29T04:21:28;23.57;;;21.87;;
20505;SDS011;10411;48.148;7.704;2022-07-29T04:23:54;23.67;;;21.80;;
20505;SDS011;10411;48.148;7.704;2022-07-29T04:26:20;21.50;;;20.10;;
20505;SDS011;10411;48.148;7.704;2022-07-29T04:28:46;22.23;;;20.73;;
20505;SDS011;10411;48.148;7.704;2022-07-29T04:31:12;22.57;;;21.00;;
20505;SDS011;10411;48.148;7.704;2022-07-29T04:33:39;23.20;;;21.10;;
20505;SDS011;10411;48.148;7.704;2022-07-29T04:36:05;23.40;;;21.70;;
20505;SDS011;10411;48.148;7.704;2022-07-29T04:38:31;22.67;;;20.97;;
20505;SDS011;10411;48.148;7.704;2022-07-29T04:40:57;22.23;;;20.60;;
20505;SDS011;10411;48.148;7.704;2022-07-29T04:43:23;21.30;;;19.50;;
20505;SDS011;10411;48.148;7.704;2022-07-29T04:45:49;21.93;;;20.50;;
20505;SDS011;10411;48.148;7.704;2022-07-29T04:48:15;21.13;;;19.93;;
20505;SDS011;10411;48.148;7.704;2022-07-29T04:50:41;21.43;;;19.90;;
20505;SDS011;10411;48.148;7.704;2022-07-29T04:53:07;21.10;;;19.90;;
20505;SDS011;10411;48.148;7.704;2022-07-29T04:55:33;22.00;;;20.47;;
20505;SDS011;10411;48.148;7.704;2022-07-29T04:57:59;22.13;;;20.40;;
20505;SDS011;10411;48.148;7.704;2022-07-29T05:00:25;21.23;;;19.93;;
20505;SDS011;10411;48.148;7.704;2022-07-29T05:02:51;21.30;;;20.07;;
20505;SDS011;10411;48.148;7.704;2022-07-29T05:05:17;22.73;;;20.83;;
20505;SDS011;10411;48.148;7.704;2022-07-29T05:07:43;21.87;;;20.47;;
20505;SDS011;10411;48.148;7.704;2022-07-29T05:10:09;22.33;;;20.90;;
20505;SDS011;10411;48.148;7.704;2022-07-29T05:12:36;21.97;;;20.33;;
20505;SDS011;10411;48.148;7.704;2022-07-29T05:15:03;22.37;;;20.70;;
20505;SDS011;10411;48.148;7.704;2022-07-29T05:40:25;23.20;;;21.57;;
20505;SDS011;10411;48.148;7.704;2022-07-29T05:42:51;21.67;;;20.30;;
20505;SDS011;10411;48.148;7.704;2022-07-29T05:45:17;22.60;;;20.90;;
20505;SDS011;10411;48.148;7.704;2022-07-29T05:47:43;21.87;;;20.47;;
20505;SDS011;10411;48.148;7.704;2022-07-29T05:50:10;21.50;;;20.10;;
20505;SDS011;10411;48.148;7.704;2022-07-29T05:52:36;21.97;;;20.40;;
20505;SDS011;10411;48.148;7.704;2022-07-29T05:55:05;22.87;;;21.23;;
20505;SDS011;10411;48.148;7.704;2022-07-29T05:57:31;22.50;;;20.57;;
20505;SDS011;10411;48.148;7.704;2022-07-29T06:00:05;21.30;;;19.90;;
20505;SDS011;10411;48.148;7.704;2022-07-29T06:02:31;22.07;;;20.40;;
20505;SDS011;10411;48.148;7.704;2022-07-29T06:05:00;22.73;;;21.03;;
20505;SDS011;10411;48.148;7.704;2022-07-29T06:07:26;21.50;;;20.10;;
20505;SDS011;10411;48.148;7.704;2022-07-29T06:09:52;21.77;;;20.40;;
20505;SDS011;10411;48.148;7.704;2022-07-29T06:12:18;21.83;;;19.87;;
20505;SDS011;10411;48.148;7.704;2022-07-29T06:14:44;22.00;;;20.30;;
20505;SDS011;10411;48.148;7.704;2022-07-29T06:17:10;22.37;;;20.50;;
20505;SDS011;10411;48.148;7.704;2022-07-29T06:19:36;22.77;;;20.77;;
20505;SDS011;10411;48.148;7.704;2022-07-29T06:22:03;21.30;;;19.80;;
20505;SDS011;10411;48.148;7.704;2022-07-29T06:24:29;21.38;;;19.88;;
20505;SDS011;10411;48.148;7.704;2022-07-29T06:26:55;22.02;;;20.42;;
20505;SDS011;10411;48.148;7.704;2022-07-29T06:29:21;21.30;;;19.90;;
20505;SDS011;10411;48.148;7.704;2022-07-29T06:31:47;21.70;;;19.85;;
20505;SDS011;10411;48.148;7.704;2022-07-29T06:34:13;21.08;;;19.88;;
20505;SDS011;10411;48.148;7.704;2022-07-29T06:36:40;21.52;;;20.02;;
20505;SDS011;10411;48.148;7.704;2022-07-29T06:39:06;22.70;;;20.50;;
20505;SDS011;10411;48.148;7.704;2022-07-29T06:41:33;20.23;;;18.92;;
20505;SDS011;10411;48.148;7.704;2022-07-29T06:58:02;20.83;;;19.27;;
20505;SDS011;10411;48.148;7.704;2022-07-29T07:00:30;21.10;;;19.60;;
20505;SDS011;10411;48.148;7.704;2022-07-29T07:02:56;21.08;;;19.50;;
20505;SDS011;10411;48.148;7.704;2022-07-29T07:07:53;20.30;;;18.90;;
20505;SDS011;10411;48.148;7.704;2022-07-29T07:10:22;21.20;;;19.42;;
20505;SDS011;10411;48.148;7.704;2022-07-29T07:12:51;21.67;;;19.35;;
20505;SDS011;10411;48.148;7.704;2022-07-29T07:15:17;20.65;;;19.35;;
20505;SDS011;10411;48.148;7.704;2022-07-29T07:17:53;20.88;;;19.40;;
20505;SDS011;10411;48.148;7.704;2022-07-29T07:20:19;21.35;;;19.83;;
20505;SDS011;10411;48.148;7.704;2022-07-29T07:22:45;20.88;;;19.23;;
20505;SDS011;10411;48.148;7.704;2022-07-29T07:25:14;21.13;;;19.50;;
20505;SDS011;10411;48.148;7.704;2022-07-29T07:36:34;19.65;;;18.35;;
20505;SDS011;10411;48.148;7.704;2022-07-29T07:59:12;22.48;;;20.58;;
20505;SDS011;10411;48.148;7.704;2022-07-29T08:02:23;21.50;;;20.02;;
20505;SDS011;10411;48.148;7.704;2022-07-29T08:37:18;23.03;;;21.37;;
20505;SDS011;10411;48.148;7.704;2022-07-29T08:39:44;23.05;;;20.80;;
20505;SDS011;10411;48.148;7.704;2022-07-29T08:42:10;23.47;;;21.67;;
20505;SDS011;10411;48.148;7.704;2022-07-29T08:44:36;19.50;;;18.10;;
20505;SDS011;10411;48.148;7.704;2022-07-29T08:56:51;21.97;;;19.80;;
20505;SDS011;10411;48.148;7.704;2022-07-29T08:59:20;20.87;;;19.20;;
20505;SDS011;10411;48.148;7.704;2022-07-29T09:01:46;21.95;;;19.92;;
20505;SDS011;10411;48.148;7.704;2022-07-29T09:04:12;21.85;;;19.70;;
20505;SDS011;10411;48.148;7.704;2022-07-29T09:06:42;20.52;;;19.23;;
20505;SDS011;10411;48.148;7.704;2022-07-29T09:09:31;21.70;;;19.83;;
20505;SDS011;10411;48.148;7.704;2022-07-29T09:12:06;20.83;;;19.33;;
20505;SDS011;10411;48.148;7.704;2022-07-29T09:14:54;22.02;;;20.15;;
20505;SDS011;10411;48.148;7.704;2022-07-29T09:17:39;22.77;;;21.02;;
20505;SDS011;10411;48.148;7.704;2022-07-29T09:20:15;22.53;;;20.93;;
20505;SDS011;10411;48.148;7.704;2022-07-29T09:34:44;22.33;;;20.73;;
20505;SDS011;10411;48.148;7.704;2022-07-29T09:40:22;22.73;;;21.13;;
20505;SDS011;10411;48.148;7.704;2022-07-29T09:42:49;22.97;;;21.17;;
20505;SDS011;10411;48.148;7.704;2022-07-29T09:45:36;21.90;;;20.37;;
20505;SDS011;10411;48.148;7.704;2022-07-29T09:50:53;21.90;;;20.27;;
20505;SDS011;10411;48.148;7.704;2022-07-29T10:02:42;22.52;;;20.80;;
20505;SDS011;10411;48.148;7.704;2022-07-29T10:05:28;21.90;;;20.40;;
20505;SDS011;10411;48.148;7.704;2022-07-29T10:07:55;21.83;;;20.38;;
20505;SDS011;10411;48.148;7.704;2022-07-29T10:10:25;20.65;;;19.10;;
20505;SDS011;10411;48.148;7.704;2022-07-29T10:12:56;20.02;;;18.80;;
20505;SDS011;10411;48.148;7.704;2022-07-29T10:15:23;19.88;;;18.50;;
20505;SDS011;10411;48.148;7.704;2022-07-29T10:17:49;20.15;;;18.80;;
20505;SDS011;10411;48.148;7.704;2022-07-29T10:20:16;20.63;;;19.13;;
20505;SDS011;10411;48.148;7.704;2022-07-29T10:22:42;20.40;;;18.92;;
20505;SDS011;10411;48.148;7.704;2022-07-29T10:25:09;20.90;;;19.30;;
20505;SDS011;10411;48.148;7.704;2022-07-29T10:27:35;21.15;;;19.35;;
20505;SDS011;10411;48.148;7.704;2022-07-29T10:30:03;21.27;;;19.63;;
20505;SDS011;10411;48.148;7.704;2022-07-29T10:45:07;22.08;;;20.20;;
20505;SDS011;10411;48.148;7.704;2022-07-29T10:47:49;21.42;;;19.48;;
20505;SDS011;10411;48.148;7.704;2022-07-29T11:10:19;22.03;;;19.53;;
20505;SDS011;10411;48.148;7.704;2022-07-29T11:12:46;21.87;;;20.10;;
20505;SDS011;10411;48.148;7.704;2022-07-29T11:15:13;22.27;;;20.70;;
20505;SDS011;10411;48.148;7.704;2022-07-29T11:29:12;21.17;;;19.63;;
20505;SDS011;10411;48.148;7.704;2022-07-29T11:31:45;21.20;;;19.47;;
20505;SDS011;10411;48.148;7.704;2022-07-29T11:34:32;21.13;;;19.40;;
20505;SDS011;10411;48.148;7.704;2022-07-29T11:39:34;23.25;;;20.13;;
20505;SDS011;10411;48.148;7.704;2022-07-29T11:44:54;21.75;;;20.00;;
20505;SDS011;10411;48.148;7.704;2022-07-29T11:47:27;21.20;;;19.47;;
20505;SDS011;10411;48.148;7.704;2022-07-29T11:49:54;21.58;;;19.92;;
20505;SDS011;10411;48.148;7.704;2022-07-29T11:52:21;22.13;;;20.60;;
20505;SDS011;10411;48.148;7.704;2022-07-29T11:54:48;22.05;;;20.45;;
20505;SDS011;10411;48.148;7.704;2022-07-29T11:57:16;21.70;;;20.40;;
20505;SDS011;10411;48.148;7.704;2022-07-29T11:59:42;22.17;;;20.50;;
20505;SDS011;10411;48.148;7.704;2022-07-29T12:02:09;22.97;;;21.17;;
20505;SDS011;10411;48.148;7.704;2022-07-29T12:04:48;24.50;;;22.50;;
20505;SDS011;10411;48.148;7.704;2022-07-29T12:07:15;24.23;;;22.43;;
20505;SDS011;10411;48.148;7.704;2022-07-29T12:09:53;24.67;;;22.73;;
20505;SDS011;10411;48.148;7.704;2022-07-29T12:12:20;23.53;;;21.97;;
20505;SDS011;10411;48.148;7.704;2022-07-29T12:14:47;24.38;;;22.70;;
20505;SDS011;10411;48.148;7.704;2022-07-29T12:17:29;24.27;;;22.65;;
20505;SDS011;10411;48.148;7.704;2022-07-29T12:19:55;25.67;;;24.07;;
20505;SDS011;10411;48.148;7.704;2022-07-29T12:22:28;25.93;;;23.63;;
20505;SDS011;10411;48.148;7.704;2022-07-29T12:24:54;25.73;;;23.73;;
20505;SDS011;10411;48.148;7.704;2022-07-29T12:27:21;25.47;;;23.30;;
20505;SDS011;10411;48.148;7.704;2022-07-29T12:30:00;24.92;;;23.15;;
20505;SDS011;10411;48.148;7.704;2022-07-29T12:32:34;26.30;;;24.37;;
20505;SDS011;10411;48.148;7.704;2022-07-29T12:35:08;22.77;;;21.17;;
20505;SDS011;10411;48.148;7.704;2022-07-29T12:37:35;25.07;;;23.20;;
20505;SDS011;10411;48.148;7.704;2022-07-29T12:40:08;25.33;;;23.70;;
20505;SDS011;10411;48.148;7.704;2022-07-29T12:42:34;25.20;;;23.63;;
20505;SDS011;10411;48.148;7.704;2022-07-29T12:45:00;22.30;;;20.73;;
20505;SDS011;10411;48.148;7.704;2022-07-29T12:47:27;22.17;;;20.77;;
20505;SDS011;10411;48.148;7.704;2022-07-29T12:50:13;23.20;;;21.63;;
20505;SDS011;10411;48.148;7.704;2022-07-29T12:52:40;23.33;;;21.20;;
20505;SDS011;10411;48.148;7.704;2022-07-29T12:55:06;22.37;;;20.73;;
20505;SDS011;10411;48.148;7.704;2022-07-29T12:57:35;22.57;;;21.10;;
20505;SDS011;10411;48.148;7.704;2022-07-29T13:00:11;23.00;;;21.40;;
20505;SDS011;10411;48.148;7.704;2022-07-29T13:02:38;23.00;;;21.30;;
20505;SDS011;10411;48.148;7.704;2022-07-29T13:05:04;21.47;;;19.97;;
20505;SDS011;10411;48.148;7.704;2022-07-29T13:07:32;22.17;;;20.30;;
20505;SDS011;10411;48.148;7.704;2022-07-29T13:10:09;21.50;;;20.00;;
20505;SDS011;10411;48.148;7.704;2022-07-29T13:12:35;20.80;;;19.60;;
20505;SDS011;10411;48.148;7.704;2022-07-29T13:15:11;22.20;;;20.80;;
20505;SDS011;10411;48.148;7.704;2022-07-29T13:17:41;21.77;;;19.80;;
20505;SDS011;10411;48.148;7.704;2022-07-29T13:20:09;20.20;;;19.00;;
20505;SDS011;10411;48.148;7.704;2022-07-29T13:22:37;20.57;;;19.27;;
20505;SDS011;10411;48.148;7.704;2022-07-29T13:25:06;20.97;;;19.57;;
20505;SDS011;10411;48.148;7.704;2022-07-29T13:27:35;20.53;;;19.17;;
20505;SDS011;10411;48.148;7.704;2022-07-29T13:30:10;20.70;;;19.47;;
20505;SDS011;10411;48.148;7.704;2022-07-29T13:32:37;20.23;;;18.93;;
20505;SDS011;10411;48.148;7.704;2022-07-29T13:35:04;21.07;;;19.67;;
20505;SDS011;10411;48.148;7.704;2022-07-29T13:37:30;19.93;;;18.73;;
20505;SDS011;10411;48.148;7.704;2022-07-29T13:39:58;20.60;;;19.10;;
20505;SDS011;10411;48.148;7.704;2022-07-29T13:42:25;21.00;;;19.60;;
20505;SDS011;10411;48.148;7.704;2022-07-29T13:44:51;19.80;;;18.33;;
20505;SDS011;10411;48.148;7.704;2022-07-29T13:47:18;20.47;;;19.17;;
20505;SDS011;10411;48.148;7.704;2022-07-29T13:49:44;20.90;;;19.50;;
20505;SDS011;10411;48.148;7.704;2022-07-29T13:52:10;21.00;;;19.60;;
20505;SDS011;10411;48.148;7.704;2022-07-29T13:54:36;20.87;;;19.50;;
20505;SDS011;10411;48.148;7.704;2022-07-29T13:57:03;21.13;;;19.60;;
20505;SDS011;10411;48.148;7.704;2022-07-29T13:59:29;19.77;;;18.57;;
20505;SDS011;10411;48.148;7.704;2022-07-29T14:01:55;19.83;;;18.43;;
20505;SDS011;10411;48.148;7.704;2022-07-29T14:04:21;19.27;;;17.83;;
20505;SDS011;10411;48.148;7.704;2022-07-29T14:06:50;20.40;;;18.80;;
20505;SDS011;10411;48.148;7.704;2022-07-29T14:09:16;20.63;;;18.77;;
20505;SDS011;10411;48.148;7.704;2022-07-29T14:11:42;19.87;;;18.20;;
20505;SDS011;10411;48.148;7.704;2022-07-29T14:14:08;19.13;;;17.93;;
20505;SDS011;10411;48.148;7.704;2022-07-29T14:16:35;19.13;;;18.03;;
20505;SDS011;10411;48.148;7.704;2022-07-29T14:19:01;20.10;;;18.47;;
20505;SDS011;10411;48.148;7.704;2022-07-29T14:21:27;19.70;;;18.50;;
20505;SDS011;10411;48.148;7.704;2022-07-29T14:23:53;19.60;;;18.10;;
20505;SDS011;10411;48.148;7.704;2022-07-29T14:26:20;20.57;;;18.67;;
20505;SDS011;10411;48.148;7.704;2022-07-29T14:28:46;20.63;;;19.03;;
20505;SDS011;10411;48.148;7.704;2022-07-29T14:31:13;21.65;;;19.92;;
20505;SDS011;10411;48.148;7.704;2022-07-29T14:33:39;20.10;;;18.70;;
20505;SDS011;10411;48.148;7.704;2022-07-29T14:36:05;21.10;;;19.30;;
20505;SDS011;10411;48.148;7.704;2022-07-29T14:38:31;19.13;;;17.80;;
20505;SDS011;10411;48.148;7.704;2022-07-29T14:40:57;18.50;;;17.10;;
20505;SDS011;10411;48.148;7.704;2022-07-29T14:43:23;19.33;;;17.80;;
20505;SDS011;10411;48.148;7.704;2022-07-29T14:45:49;19.48;;;17.90;;
20505;SDS011;10411;48.148;7.704;2022-07-29T14:48:14;19.00;;;17.70;;
20505;SDS011;10411;48.148;7.704;2022-07-29T14:50:40;18.73;;;17.47;;
20505;SDS011;10411;48.148;7.704;2022-07-29T14:53:06;18.53;;;17.30;;
20505;SDS011;10411;48.148;7.704;2022-07-29T14:55:33;18.23;;;17.13;;
20505;SDS011;10411;48.148;7.704;2022-07-29T15:07:17;19.77;;;18.27;;
20505;SDS011;10411;48.148;7.704;2022-07-29T15:09:46;18.90;;;17.63;;
20505;SDS011;10411;48.148;7.704;2022-07-29T15:12:12;19.08;;;17.58;;
20505;SDS011;10411;48.148;7.704;2022-07-29T15:14:38;19.20;;;18.00;;
20505;SDS011;10411;48.148;7.704;2022-07-29T15:17:04;20.83;;;19.30;;
20505;SDS011;10411;48.148;7.704;2022-07-29T15:19:30;19.70;;;18.13;;
20505;SDS011;10411;48.148;7.704;2022-07-29T15:21:56;21.10;;;18.97;;
20505;SDS011;10411;48.148;7.704;2022-07-29T15:24:22;20.63;;;19.20;;
20505;SDS011;10411;48.148;7.704;2022-07-29T15:26:48;20.57;;;18.97;;
20505;SDS011;10411;48.148;7.704;2022-07-29T15:29:14;19.17;;;17.83;;
20505;SDS011;10411;48.148;7.704;2022-07-29T15:31:41;19.80;;;18.20;;
20505;SDS011;10411;48.148;7.704;2022-07-29T15:34:07;19.27;;;18.17;;
20505;SDS011;10411;48.148;7.704;2022-07-29T15:36:32;19.30;;;17.70;;
20505;SDS011;10411;48.148;7.704;2022-07-29T15:39:00;18.20;;;17.20;;
20505;SDS011;10411;48.148;7.704;2022-07-29T15:41:26;18.87;;;17.53;;
20505;SDS011;10411;48.148;7.704;2022-07-29T15:43:52;18.23;;;17.07;;
20505;SDS011;10411;48.148;7.704;2022-07-29T15:46:18;19.17;;;17.90;;
20505;SDS011;10411;48.148;7.704;2022-07-29T15:49:04;18.87;;;17.47;;
20505;SDS011;10411;48.148;7.704;2022-07-29T15:51:30;18.40;;;17.17;;
20505;SDS011;10411;48.148;7.704;2022-07-29T15:53:56;19.10;;;17.87;;
20505;SDS011;10411;48.148;7.704;2022-07-29T15:56:22;18.37;;;16.97;;
20505;SDS011;10411;48.148;7.704;2022-07-29T15:58:49;18.40;;;17.20;;
20505;SDS011;10411;48.148;7.704;2022-07-29T16:01:15;19.40;;;18.03;;
20505;SDS011;10411;48.148;7.704;2022-07-29T16:03:41;18.97;;;17.57;;
20505;SDS011;10411;48.148;7.704;2022-07-29T16:06:07;19.87;;;18.50;;
20505;SDS011;10411;48.148;7.704;2022-07-29T16:08:34;19.33;;;17.97;;
20505;SDS011;10411;48.148;7.704;2022-07-29T16:11:00;19.17;;;17.77;;
20505;SDS011;10411;48.148;7.704;2022-07-29T16:13:26;18.60;;;17.60;;
20505;SDS011;10411;48.148;7.704;2022-07-29T16:15:52;19.10;;;17.73;;
20505;SDS011;10411;48.148;7.704;2022-07-29T16:18:18;19.93;;;18.07;;
20505;SDS011;10411;48.148;7.704;2022-07-29T16:20:43;19.43;;;18.10;;
20505;SDS011;10411;48.148;7.704;2022-07-29T16:23:09;18.73;;;17.50;;
20505;SDS011;10411;48.148;7.704;2022-07-29T16:25:37;19.17;;;17.97;;
20505;SDS011;10411;48.148;7.704;2022-07-29T16:28:03;19.67;;;18.50;;
20505;SDS011;10411;48.148;7.704;2022-07-29T16:30:29;19.70;;;18.33;;
20505;SDS011;10411;48.148;7.704;2022-07-29T16:32:56;19.20;;;18.10;;
20505;SDS011;10411;48.148;7.704;2022-07-29T16:35:22;19.60;;;18.10;;
20505;SDS011;10411;48.148;7.704;2022-07-29T16:37:48;18.90;;;17.80;;
20505;SDS011;10411;48.148;7.704;2022-07-29T16:40:14;18.77;;;17.33;;
20505;SDS011;10411;48.148;7.704;2022-07-29T16:42:40;18.50;;;17.20;;
20505;SDS011;10411;48.148;7.704;2022-07-29T16:45:06;19.57;;;17.83;;
20505;SDS011;10411;48.148;7.704;2022-07-29T16:47:32;18.93;;;17.70;;
20505;SDS011;10411;48.148;7.704;2022-07-29T16:49:58;19.93;;;18.50;;
20505;SDS011;10411;48.148;7.704;2022-07-29T16:52:24;18.27;;;17.07;;
20505;SDS011;10411;48.148;7.704;2022-07-29T16:54:50;18.03;;;16.70;;
20505;SDS011;10411;48.148;7.704;2022-07-29T16:57:16;17.83;;;16.60;;
20505;SDS011;10411;48.148;7.704;2022-07-29T16:59:42;17.83;;;16.73;;
20505;SDS011;10411;48.148;7.704;2022-07-29T17:02:08;17.80;;;16.53;;
20505;SDS011;10411;48.148;7.704;2022-07-29T17:04:35;18.40;;;16.70;;
20505;SDS011;10411;48.148;7.704;2022-07-29T17:07:01;18.23;;;17.03;;
20505;SDS011;10411;48.148;7.704;2022-07-29T17:09:27;18.10;;;16.43;;
20505;SDS011;10411;48.148;7.704;2022-07-29T17:11:54;17.43;;;16.33;;
20505;SDS011;10411;48.148;7.704;2022-07-29T17:14:24;19.53;;;17.93;;
20505;SDS011;10411;48.148;7.704;2022-07-29T17:16:51;19.20;;;17.77;;
20505;SDS011;10411;48.148;7.704;2022-07-29T17:19:17;18.70;;;17.17;;
20505;SDS011;10411;48.148;7.704;2022-07-29T17:21:43;19.33;;;18.03;;
20505;SDS011;10411;48.148;7.704;2022-07-29T17:24:09;19.80;;;18.13;;
20505;SDS011;10411;48.148;7.704;2022-07-29T17:26:35;19.43;;;17.97;;
20505;SDS011;10411;48.148;7.704;2022-07-29T17:29:01;19.73;;;18.53;;
20505;SDS011;10411;48.148;7.704;2022-07-29T17:31:27;19.87;;;18.60;;
20505;SDS011;10411;48.148;7.704;2022-07-29T17:33:53;19.67;;;18.33;;
20505;SDS011;10411;48.148;7.704;2022-07-29T17:36:19;20.13;;;18.47;;
20505;SDS011;10411;48.148;7.704;2022-07-29T17:38:48;20.47;;;18.77;;
20505;SDS011;10411;48.148;7.704;2022-07-29T17:41:14;20.83;;;19.23;;
20505;SDS011;10411;48.148;7.704;2022-07-29T17:43:40;19.30;;;17.87;;
20505;SDS011;10411;48.148;7.704;2022-07-29T17:46:06;18.83;;;17.40;;
20505;SDS011;10411;48.148;7.704;2022-07-29T17:48:36;19.63;;;18.37;;
20505;SDS011;10411;48.148;7.704;2022-07-29T17:51:02;19.77;;;18.47;;
20505;SDS011;10411;48.148;7.704;2022-07-29T17:53:28;18.80;;;17.70;;
20505;SDS011;10411;48.148;7.704;2022-07-29T17:55:54;20.47;;;18.93;;
20505;SDS011;10411;48.148;7.704;2022-07-29T17:58:21;19.23;;;17.80;;
20505;SDS011;10411;48.148;7.704;2022-07-29T18:00:47;19.10;;;17.87;;
20505;SDS011;10411;48.148;7.704;2022-07-29T18:03:13;19.23;;;17.83;;
20505;SDS011;10411;48.148;7.704;2022-07-29T18:05:39;20.27;;;18.63;;
20505;SDS011;10411;48.148;7.704;2022-07-29T18:08:06;18.33;;;17.03;;